Time;durP1;ratioP1;P1;durP2;ratioP2;P2;SDS_P1;SDS_P2;PMS_P1;PMS_P2;Temp;Humidity;BMP_temperature;BMP_pressure;BME280_temperature;BME280_humidity;BME280_pressure;Samples;Min_cycle;Max_cycle;Signal;HPM_P1;HPM_P2
2021/01/18 00:01:42;;;;;;;31.27;13.20;;;;;;;-5.47;68.52;100776.72;5018242;28;20034;-72
2021/01/18 00:04:08;;;;;;;27.75;12.65;;;;;;;-5.57;69.08;100776.59;5035980;28;20064;-72
2021/01/18 00:06:35;;;;;;;28.90;12.27;;;;;;;-5.55;68.99;100774.88;5018133;28;20040;-72
2021/01/18 00:09:02;;;;;;;28.50;12.27;;;;;;;-5.84;69.03;100751.94;5036052;28;20092;-72
2021/01/18 00:11:27;;;;;;;28.00;12.02;;;;;;;-5.79;69.30;100762.41;5017798;28;20041;-72
2021/01/18 00:13:54;;;;;;;29.05;12.43;;;;;;;-6.09;68.75;100716.09;5018826;28;20040;-72
2021/01/18 00:16:21;;;;;;;27.77;12.07;;;;;;;-5.81;68.94;100772.78;5036111;28;20042;-72
2021/01/18 00:18:47;;;;;;;28.23;12.27;;;;;;;-5.85;69.10;100767.53;5017921;28;20079;-71
2021/01/18 00:21:14;;;;;;;26.48;12.00;;;;;;;-5.98;69.19;100750.94;5036039;28;20099;-73
2021/01/18 00:23:40;;;;;;;27.67;11.93;;;;;;;-5.93;68.94;100780.44;5035506;28;20032;-72
2021/01/18 00:26:06;;;;;;;27.73;12.70;;;;;;;-6.10;69.57;100781.91;5035922;28;20033;-72
2021/01/18 00:28:33;;;;;;;28.20;12.40;;;;;;;-6.19;70.56;100797.31;5035373;28;20111;-73
2021/01/18 00:31:00;;;;;;;27.63;12.82;;;;;;;-6.27;70.38;100798.91;5017913;28;20073;-72
2021/01/18 00:33:26;;;;;;;33.58;12.95;;;;;;;-6.18;69.95;100806.84;5035239;28;20045;-73
2021/01/18 00:35:52;;;;;;;27.60;12.13;;;;;;;-6.10;69.58;100810.47;5035438;28;20120;-72
2021/01/18 00:38:18;;;;;;;28.65;11.88;;;;;;;-6.01;69.40;100820.13;5035394;28;20112;-73
2021/01/18 00:40:43;;;;;;;25.20;11.23;;;;;;;-6.08;69.90;100812.25;5034988;28;20030;-70
2021/01/18 00:43:09;;;;;;;29.45;12.68;;;;;;;-6.44;69.11;100752.81;5017998;28;20091;-71
2021/01/18 00:45:35;;;;;;;30.38;11.98;;;;;;;-6.17;69.77;100816.44;5035136;28;20069;-71
2021/01/18 00:48:00;;;;;;;27.95;12.38;;;;;;;-5.96;69.29;100823.69;5035360;28;20040;-71
2021/01/18 00:50:30;;;;;;;28.70;11.63;;;;;;;-6.07;69.08;100805.34;5017334;28;20482;-77
2021/01/18 00:52:56;;;;;;;27.00;12.48;;;;;;;-6.09;69.31;100817.41;5035205;28;20041;-71
2021/01/18 00:55:23;;;;;;;34.92;13.02;;;;;;;-6.25;69.33;100807.63;5035447;28;20033;-71
2021/01/18 00:57:49;;;;;;;27.10;11.73;;;;;;;-6.28;69.82;100799.78;5035260;28;20120;-72
2021/01/18 01:00:18;;;;;;;28.00;12.38;;;;;;;-6.35;69.78;100802.28;5035184;28;20033;-71
2021/01/18 01:02:45;;;;;;;28.58;11.35;;;;;;;-6.17;69.07;100801.72;5017040;28;20037;-71
2021/01/18 01:05:13;;;;;;;32.33;12.65;;;;;;;-6.36;69.08;100787.56;5017139;28;20061;-72
2021/01/18 01:07:43;;;;;;;28.05;11.73;;;;;;;-6.32;69.11;100779.81;5034512;28;20037;-71
2021/01/18 01:10:11;;;;;;;27.55;12.13;;;;;;;-6.58;69.29;100746.50;5034855;28;20596;-72
2021/01/18 01:12:37;;;;;;;28.23;12.23;;;;;;;-6.38;69.54;100794.41;5034778;28;20033;-72
2021/01/18 01:15:10;;;;;;;28.17;12.60;;;;;;;-6.40;69.96;100803.91;5035241;28;20044;-72
2021/01/18 01:17:43;;;;;;;26.50;12.52;;;;;;;-6.41;69.36;100793.50;5017266;28;20036;-72
2021/01/18 01:20:17;;;;;;;26.83;12.02;;;;;;;-6.46;68.54;100790.84;5034680;28;20490;-72
2021/01/18 01:22:43;;;;;;;27.30;11.35;;;;;;;-6.62;68.99;100778.44;5029832;28;20474;-71
2021/01/18 01:25:14;;;;;;;26.65;11.75;;;;;;;-6.65;69.20;100778.41;5034491;28;20029;-70
2021/01/18 01:27:40;;;;;;;29.13;12.30;;;;;;;-6.60;69.30;100789.72;5034511;28;20079;-73
2021/01/18 01:30:08;;;;;;;25.15;11.68;;;;;;;-6.85;70.21;100772.84;5017053;28;20501;-71
2021/01/18 01:32:38;;;;;;;25.95;12.15;;;;;;;-6.89;70.62;100788.31;5034081;28;20033;-71
2021/01/18 01:35:05;;;;;;;24.65;11.23;;;;;;;-6.81;70.58;100789.34;5034426;28;20056;-72
2021/01/18 01:37:31;;;;;;;27.38;11.50;;;;;;;-6.86;69.84;100749.44;5016580;28;20053;-72
2021/01/18 01:39:56;;;;;;;27.20;12.60;;;;;;;-6.73;68.83;100783.44;5034561;28;20068;-72
2021/01/18 01:42:23;;;;;;;25.92;12.05;;;;;;;-6.52;68.66;100803.72;5033488;28;20044;-72
2021/01/18 01:44:51;;;;;;;26.75;11.75;;;;;;;-6.49;68.83;100801.16;5034220;28;20168;-70
2021/01/18 01:47:38;;;;;;;27.48;12.63;;;;;;;-6.52;68.59;100798.53;5016602;28;20470;-70
2021/01/18 01:50:07;;;;;;;26.27;12.13;;;;;;;-6.47;68.50;100802.06;5034749;28;20033;-71
2021/01/18 01:52:36;;;;;;;26.83;11.48;;;;;;;-6.47;68.21;100786.47;5016676;28;20033;-70
2021/01/18 01:55:06;;;;;;;28.60;12.40;;;;;;;-6.57;68.72;100794.94;5034141;28;20390;-70
2021/01/18 01:57:33;;;;;;;29.17;12.45;;;;;;;-6.74;69.38;100794.69;5033958;28;20025;-70
2021/01/18 01:59:59;;;;;;;31.85;12.10;;;;;;;-7.21;69.67;100723.75;5016369;28;20037;-69
2021/01/18 02:02:25;;;;;;;27.25;11.98;;;;;;;-6.91;70.38;100790.88;5034346;28;20049;-69
2021/01/18 02:04:50;;;;;;;28.23;11.73;;;;;;;-7.24;70.67;100736.66;5033679;28;20084;-68
2021/01/18 02:07:28;;;;;;;32.80;13.80;;;;;;;-7.33;71.43;100732.19;5016184;28;20084;-69
2021/01/18 02:09:55;;;;;;;24.45;11.23;;;;;;;-7.06;71.24;100781.06;5033515;28;20034;-68
2021/01/18 02:12:25;;;;;;;25.73;11.57;;;;;;;-7.11;71.90;100774.94;4999653;28;20490;-69
2021/01/18 02:15:08;;;;;;;30.08;12.52;;;;;;;-7.13;72.34;100773.19;4999207;28;20915;-69
2021/01/18 02:17:42;;;;;;;27.52;12.05;;;;;;;-7.12;72.48;100780.09;5033374;28;20065;-69
2021/01/18 02:20:28;;;;;;;28.70;12.70;;;;;;;-7.09;72.47;100783.63;5033549;28;20022;-69
2021/01/18 02:23:15;;;;;;;24.42;11.15;;;;;;;-6.69;70.72;100784.38;5032712;28;20128;-71
2021/01/18 02:25:48;;;;;;;25.23;11.00;;;;;;;-6.74;69.72;100773.03;5033312;28;20382;-71
2021/01/18 02:28:43;;;;;;;28.77;11.38;;;;;;;-6.72;70.10;100786.91;5033633;28;20108;-73
2021/01/18 02:31:27;;;;;;;27.83;11.40;;;;;;;-6.88;70.06;100777.97;5015772;28;20037;-73
2021/01/18 02:34:10;;;;;;;;;;;;;;;-6.84;69.55;100773.72;5033973;28;20426;-73
2021/01/18 02:36:52;;;;;;;27.25;10.52;;;;;;;-6.92;69.51;100771.84;5015335;28;19921;-72
2021/01/18 02:39:48;;;;;;;23.15;10.27;;;;;;;-6.93;69.23;100762.34;5015222;28;20450;-72
2021/01/18 02:42:19;;;;;;;23.90;9.70;;;;;;;-7.01;68.59;100756.13;5015954;28;20056;-71
2021/01/18 02:44:48;;;;;;;25.88;10.43;;;;;;;-6.93;68.05;100759.75;5032911;28;20044;-71
2021/01/18 02:47:15;;;;;;;22.13;9.98;;;;;;;-6.96;67.86;100756.19;5033280;28;20187;-71
2021/01/18 02:49:41;;;;;;;25.55;10.70;;;;;;;-6.99;68.50;100764.81;5033276;28;20037;-70
2021/01/18 02:52:12;;;;;;;27.50;10.18;;;;;;;-7.09;68.78;100757.69;5016590;28;20413;-70
2021/01/18 02:54:38;;;;;;;25.13;10.68;;;;;;;-7.14;68.98;100758.44;5017171;28;20548;-71
2021/01/18 02:57:05;;;;;;;24.58;10.38;;;;;;;-7.43;69.43;100709.53;5034849;28;20037;-72
2021/01/18 02:59:31;;;;;;;25.38;10.02;;;;;;;-7.03;68.03;100752.63;5017737;28;20045;-71
2021/01/18 03:02:15;;;;;;;22.42;10.38;;;;;;;-7.04;68.03;100752.63;5018437;28;20060;-71
2021/01/18 03:04:50;;;;;;;24.08;10.27;;;;;;;-7.03;68.17;100757.81;5034589;28;20041;-72
2021/01/18 03:07:37;;;;;;;26.23;10.57;;;;;;;-7.13;67.44;100761.09;5015718;28;20041;-72
2021/01/18 03:10:12;;;;;;;26.73;10.35;;;;;;;-7.43;67.12;100704.34;5032997;28;20029;-71
2021/01/18 03:12:45;;;;;;;29.23;11.23;;;;;;;-7.20;67.54;100751.44;5032521;28;20029;-73
2021/01/18 03:15:13;;;;;;;34.35;11.98;;;;;;;-7.30;67.62;100746.91;5032795;28;20037;-69
2021/01/18 03:17:40;;;;;;;28.90;10.07;;;;;;;-7.45;68.16;100734.50;5032652;28;20030;-72
2021/01/18 03:20:07;;;;;;;27.80;10.80;;;;;;;-7.32;68.59;100761.56;5033068;28;20121;-71
2021/01/18 03:22:33;;;;;;;24.52;10.13;;;;;;;-7.37;68.82;100745.91;5015282;28;20080;-71
2021/01/18 03:25:04;;;;;;;24.13;10.80;;;;;;;-7.32;68.98;100744.28;5032604;28;20034;-71
2021/01/18 03:27:49;;;;;;;26.15;10.77;;;;;;;-7.39;68.78;100738.97;5015081;28;20124;-71
2021/01/18 03:30:20;;;;;;;27.35;10.70;;;;;;;-7.18;67.28;100752.31;5015384;28;20104;-70
2021/01/18 03:32:55;;;;;;;31.92;11.00;;;;;;;-7.24;67.65;100747.91;5032471;28;20041;-71
2021/01/18 03:35:23;;;;;;;24.15;9.85;;;;;;;-7.40;67.43;100719.06;5032970;28;20537;-71
2021/01/18 03:37:56;;;;;;;23.70;10.48;;;;;;;-7.32;67.92;100744.28;5032388;28;20040;-71
2021/01/18 03:40:22;;;;;;;;;;;;;;;-7.28;68.46;100745.22;5034063;28;20474;-71
2021/01/18 03:42:59;;;;;;;28.05;9.85;;;;;;;-7.32;67.89;100738.25;5032247;28;19948;-70
2021/01/18 03:45:26;;;;;;;25.92;10.88;;;;;;;-7.67;68.58;100699.53;5032028;28;20402;-71
2021/01/18 03:47:52;;;;;;;28.45;11.15;;;;;;;-7.31;68.15;100739.97;5032233;28;20120;-71
2021/01/18 03:50:18;;;;;;;27.15;11.43;;;;;;;-7.29;68.05;100739.16;5014921;28;20057;-71
2021/01/18 03:52:48;;;;;;;27.65;10.82;;;;;;;-7.23;68.07;100741.00;5014879;28;20044;-71
2021/01/18 03:55:14;;;;;;;25.20;11.73;;;;;;;-7.43;68.45;100719.88;5032760;28;20033;-71
2021/01/18 03:57:40;;;;;;;27.27;10.23;;;;;;;-7.37;68.51;100721.72;5014603;28;20065;-73
2021/01/18 04:00:07;;;;;;;25.45;10.75;;;;;;;-7.27;67.84;100723.63;5014818;28;20394;-72
2021/01/18 04:02:32;;;;;;;27.73;11.57;;;;;;;-7.43;67.89;100717.31;5032544;28;20390;-73
2021/01/18 04:04:58;;;;;;;24.80;9.93;;;;;;;-7.24;67.41;100716.81;5015576;28;20041;-71
2021/01/18 04:07:23;;;;;;;22.73;9.95;;;;;;;-7.34;67.39;100713.97;5036290;28;20042;-71
2021/01/18 04:09:49;;;;;;;27.52;10.95;;;;;;;-7.79;67.68;100644.91;5036012;28;20080;-72
2021/01/18 04:12:14;;;;;;;26.00;11.10;;;;;;;-7.37;67.51;100725.16;5036258;28;20068;-70
2021/01/18 04:14:40;;;;;;;25.02;10.38;;;;;;;-7.47;67.74;100718.06;5018091;28;20402;-76
2021/01/18 04:17:05;;;;;;;25.05;10.05;;;;;;;-7.75;67.99;100672.59;5018298;28;20037;-71
2021/01/18 04:19:31;;;;;;;23.45;9.73;;;;;;;-7.47;67.94;100719.78;5035848;28;20065;-71
2021/01/18 04:21:57;;;;;;;21.38;9.60;;;;;;;-7.50;67.86;100711.09;5035685;28;20037;-71
2021/01/18 04:24:23;;;;;;;25.25;9.63;;;;;;;-7.44;68.16;100709.47;5035894;28;20489;-71
2021/01/18 04:26:48;;;;;;;25.10;9.30;;;;;;;-7.62;68.23;100703.09;5035374;28;20033;-72
2021/01/18 04:29:14;;;;;;;21.60;10.07;;;;;;;-7.63;68.55;100708.22;5018573;28;20041;-71
2021/01/18 04:31:41;;;;;;;20.00;8.15;;;;;;;-7.62;68.59;100717.78;5036263;28;20041;-71
2021/01/18 04:34:08;;;;;;;18.27;7.90;;;;;;;-7.79;68.57;100694.09;5035914;28;20052;-72
2021/01/18 04:36:38;;;;;;;16.77;7.95;;;;;;;-7.73;68.80;100717.53;5001313;28;20052;-72
2021/01/18 04:39:06;;;;;;;19.08;7.13;;;;;;;-7.78;68.69;100727.81;5035858;28;20030;-72
2021/01/18 04:41:32;;;;;;;26.00;10.43;;;;;;;-7.85;69.56;100725.03;5035913;28;20029;-72
2021/01/18 04:43:59;;;;;;;22.58;9.98;;;;;;;-7.79;69.24;100745.91;5035222;28;20095;-75
2021/01/18 04:46:30;;;;;;;24.42;8.90;;;;;;;-7.78;69.33;100745.06;5035296;28;20033;-75
2021/01/18 04:48:58;;;;;;;23.65;9.02;;;;;;;-7.75;69.53;100750.28;5035736;28;20040;-74
2021/01/18 04:51:24;;;;;;;27.10;10.80;;;;;;;-7.79;69.31;100741.59;5035439;28;20076;-74
2021/01/18 04:53:52;;;;;;;22.20;8.90;;;;;;;-7.77;69.48;100751.97;5035407;28;20036;-73
2021/01/18 04:56:45;;;;;;;20.02;6.88;;;;;;;-7.69;69.49;100763.38;5017793;28;20496;-73
2021/01/18 04:59:13;;;;;;;24.05;8.05;;;;;;;-7.70;69.03;100751.28;5035347;28;20064;-73
2021/01/18 05:01:41;;;;;;;14.32;6.57;;;;;;;-7.70;69.28;100750.41;5035152;28;20037;-73
2021/01/18 05:04:21;;;;;;;21.77;8.07;;;;;;;-7.68;69.02;100749.59;5034479;28;20464;-73
2021/01/18 05:06:57;;;;;;;18.65;7.28;;;;;;;-7.87;69.37;100725.00;5034811;28;20033;-72
2021/01/18 05:09:30;;;;;;;18.98;7.13;;;;;;;-7.79;69.29;100739.00;5034924;28;20028;-73
2021/01/18 05:11:58;;;;;;;22.58;9.73;;;;;;;-7.81;69.81;100737.22;5034973;28;20045;-73
2021/01/18 05:14:23;;;;;;;25.17;9.88;;;;;;;-8.09;69.79;100697.78;5034960;28;20040;-73
2021/01/18 05:16:57;;;;;;;21.17;8.93;;;;;;;-7.77;69.80;100741.63;5015615;28;20029;-73
2021/01/18 05:19:24;;;;;;;26.88;9.05;;;;;;;-7.84;69.84;100743.19;5035016;28;20032;-73
2021/01/18 05:21:50;;;;;;;21.63;8.55;;;;;;;-7.80;69.62;100749.34;5016629;28;20523;-73
2021/01/18 05:24:20;;;;;;;26.17;8.95;;;;;;;-7.86;70.32;100738.84;5035035;28;20037;-73
2021/01/18 05:27:02;;;;;;;23.23;9.60;;;;;;;-7.84;70.21;100753.56;5034705;28;20083;-80
2021/01/18 05:29:33;;;;;;;20.27;8.57;;;;;;;-7.82;70.66;100754.50;5034826;28;20029;-71
2021/01/18 05:31:59;;;;;;;26.15;9.45;;;;;;;-8.09;70.33;100710.72;5034230;28;20029;-71
2021/01/18 05:34:27;;;;;;;21.35;9.63;;;;;;;-7.76;70.03;100745.09;5016708;28;20452;-72
2021/01/18 05:36:53;;;;;;;27.17;9.82;;;;;;;-7.77;70.04;100749.41;5017171;28;20030;-72
2021/01/18 05:39:31;;;;;;;25.65;10.52;;;;;;;-8.05;69.75;100690.06;5034585;28;20036;-71
2021/01/18 05:41:58;;;;;;;17.58;7.53;;;;;;;-7.61;69.46;100769.63;5034345;28;20393;-73
2021/01/18 05:44:36;;;;;;;21.20;6.57;;;;;;;-7.90;69.10;100722.38;5034586;28;20030;-71
2021/01/18 05:47:07;;;;;;;15.50;6.03;;;;;;;-7.76;69.73;100753.72;5034222;28;20032;-71
2021/01/18 05:49:43;;;;;;;20.75;8.18;;;;;;;-7.79;70.08;100753.66;5034454;28;20033;-70
2021/01/18 05:52:23;;;;;;;17.08;7.63;;;;;;;-7.73;70.15;100771.91;5016244;28;20371;-67
2021/01/18 05:54:49;;;;;;;22.95;9.60;;;;;;;-7.70;69.92;100772.00;5033847;28;20071;-71
2021/01/18 05:57:15;;;;;;;24.45;9.50;;;;;;;-8.01;69.99;100729.00;5016811;28;20053;-67
2021/01/18 05:59:41;;;;;;;23.50;10.57;;;;;;;-7.67;70.33;100781.56;5016208;28;20052;-69
2021/01/18 06:02:09;;;;;;;27.10;10.60;;;;;;;-7.65;69.92;100780.72;5033677;28;20044;-68
2021/01/18 06:04:35;;;;;;;25.10;10.70;;;;;;;-7.58;69.79;100777.44;5034019;28;20041;-71
2021/01/18 06:07:03;;;;;;;26.63;11.32;;;;;;;-7.57;70.01;100779.19;5033567;28;20394;-71
2021/01/18 06:09:48;;;;;;;29.92;11.88;;;;;;;-7.63;70.30;100776.44;5033745;28;20041;-71
2021/01/18 06:12:28;;;;;;;24.98;10.23;;;;;;;-7.74;70.70;100765.00;5016340;28;20040;-71
2021/01/18 06:15:05;;;;;;;27.48;11.05;;;;;;;-7.51;69.77;100787.09;5033727;28;20376;-72
2021/01/18 06:17:32;;;;;;;25.88;11.60;;;;;;;-7.76;69.77;100727.81;5033673;28;20034;-72
2021/01/18 06:20:01;;;;;;;27.73;11.15;;;;;;;-7.58;70.29;100782.63;5015656;28;20041;-70
2021/01/18 06:22:27;;;;;;;28.55;11.05;;;;;;;-7.49;70.05;100779.34;4999590;28;20033;-69
2021/01/18 06:25:10;;;;;;;25.08;10.68;;;;;;;-7.33;69.14;100783.16;5027765;28;20042;-68
2021/01/18 06:27:35;;;;;;;27.50;10.73;;;;;;;-7.40;69.50;100791.63;5012245;28;20036;-71
2021/01/18 06:30:01;;;;;;;24.13;10.40;;;;;;;-7.52;69.91;100789.66;4995285;28;20038;-68
2021/01/18 06:32:31;;;;;;;28.10;10.00;;;;;;;-7.58;70.19;100798.16;5013525;28;20056;-68
2021/01/18 06:35:02;;;;;;;28.92;11.30;;;;;;;-7.46;70.14;100796.69;5013554;28;20053;-68
2021/01/18 06:37:30;;;;;;;28.42;11.35;;;;;;;-7.36;69.44;100786.53;4996012;28;20064;-68
2021/01/18 06:39:58;;;;;;;22.70;10.00;;;;;;;-7.38;69.77;100795.13;5014329;28;20026;-67
2021/01/18 06:42:24;;;;;;;25.98;10.30;;;;;;;-7.75;69.92;100747.72;5017078;28;20045;-67
2021/01/18 06:44:51;;;;;;;23.90;10.05;;;;;;;-7.67;69.77;100740.97;5000577;28;20467;-67
2021/01/18 06:47:33;;;;;;;25.10;10.73;;;;;;;-7.28;69.16;100795.34;5019000;28;20044;-67
2021/01/18 06:50:06;;;;;;;25.25;10.18;;;;;;;-7.15;68.49;100800.78;5017607;28;20030;-69
2021/01/18 06:52:34;;;;;;;22.13;9.77;;;;;;;-7.25;68.72;100790.22;5018841;28;20176;-67
2021/01/18 06:55:12;;;;;;;22.83;9.18;;;;;;;-7.14;68.40;100800.81;5016001;28;20034;-66
2021/01/18 06:57:43;;;;;;;26.38;10.23;;;;;;;-7.21;68.74;100793.75;5014271;28;20041;-68
2021/01/18 07:00:20;;;;;;;24.05;9.98;;;;;;;-7.61;69.43;100754.06;5015599;28;20050;-67
2021/01/18 07:02:54;;;;;;;21.67;8.45;;;;;;;-7.29;69.06;100803.09;4997202;28;20414;-66
2021/01/18 07:05:47;;;;;;;24.25;11.00;;;;;;;-7.35;69.25;100800.34;4995848;28;20498;-67
2021/01/18 07:08:16;;;;;;;22.02;8.55;;;;;;;-7.44;69.12;100795.84;5006587;28;20042;-68
2021/01/18 07:10:47;;;;;;;26.23;10.60;;;;;;;-7.36;68.66;100796.03;5013260;28;20062;-67
2021/01/18 07:13:13;;;;;;;26.75;10.30;;;;;;;-7.35;68.65;100797.78;5014070;28;20099;-67
2021/01/18 07:15:41;;;;;;;22.55;10.43;;;;;;;-7.53;69.08;100787.88;5013090;28;20057;-66
2021/01/18 07:18:09;;;;;;;24.60;10.48;;;;;;;-7.43;68.90;100802.81;5013265;28;20038;-64
2021/01/18 07:20:43;;;;;;;24.55;9.73;;;;;;;-7.41;68.96;100800.25;5013106;28;20030;-65
2021/01/18 07:23:26;;;;;;;25.23;11.13;;;;;;;-7.35;69.30;100810.72;5014927;28;20030;-64
2021/01/18 07:26:04;;;;;;;26.05;10.52;;;;;;;-7.37;69.23;100808.09;4996836;28;20030;-64
2021/01/18 07:28:33;;;;;;;20.73;8.73;;;;;;;-7.39;69.13;100814.13;5013156;28;20104;-64
2021/01/18 07:30:59;;;;;;;24.30;10.52;;;;;;;-7.33;69.20;100820.31;5013220;28;20484;-64
2021/01/18 07:33:25;;;;;;;16.95;7.60;;;;;;;-7.38;69.43;100811.53;5013433;28;20041;-64
2021/01/18 07:35:51;;;;;;;12.43;5.78;;;;;;;-7.35;69.05;100821.97;4995686;28;20057;-64
2021/01/18 07:38:21;;;;;;;27.42;11.07;;;;;;;-7.66;69.16;100762.56;5013081;28;20034;-64
2021/01/18 07:41:08;;;;;;;23.45;8.85;;;;;;;-7.37;69.18;100815.00;5015424;28;20057;-66
2021/01/18 07:43:42;;;;;;;23.77;9.88;;;;;;;-7.29;69.16;100816.06;5016870;28;20022;-71
2021/01/18 07:46:28;;;;;;;26.33;10.60;;;;;;;-7.09;68.81;100830.28;4999454;28;20032;-68
2021/01/18 07:48:58;;;;;;;26.20;9.75;;;;;;;-7.18;68.82;100808.50;5006384;28;20038;-65
2021/01/18 07:51:27;;;;;;;24.88;10.77;;;;;;;-6.99;68.50;100826.16;5017232;28;20038;-65
2021/01/18 07:53:54;;;;;;;27.05;11.20;;;;;;;-6.84;67.32;100826.47;5016949;28;20029;-69
2021/01/18 07:56:26;;;;;;;28.02;11.27;;;;;;;-6.81;68.03;100825.66;4999470;28;20057;-66
2021/01/18 07:58:59;;;;;;;27.17;10.80;;;;;;;-6.83;68.07;100827.34;5016783;28;20052;-67
2021/01/18 08:01:29;;;;;;;29.25;11.35;;;;;;;-7.01;67.73;100796.75;5016883;28;20041;-67
2021/01/18 08:04:20;;;;;;;25.83;10.27;;;;;;;-6.75;67.88;100834.44;5016746;28;20085;-65
2021/01/18 08:07:03;;;;;;;27.15;10.40;;;;;;;-6.83;67.86;100823.03;5016288;28;20046;-66
2021/01/18 08:09:30;;;;;;;17.17;7.22;;;;;;;-6.92;67.80;100823.72;5016538;28;20037;-76
2021/01/18 08:12:32;;;;;;;24.77;9.82;;;;;;;-6.80;68.01;100822.22;5016742;28;20060;-64
2021/01/18 08:15:05;;;;;;;24.23;9.85;;;;;;;-6.99;68.49;100801.09;5016522;28;20041;-64
2021/01/18 08:17:30;;;;;;;28.57;11.90;;;;;;;-6.81;68.32;100815.28;4998819;28;20042;-67
2021/01/18 08:20:21;;;;;;;31.10;11.35;;;;;;;-6.76;68.65;100824.00;5016330;28;20030;-65
2021/01/18 08:22:47;;;;;;;21.88;10.20;;;;;;;-6.73;68.25;100831.88;5015967;28;20038;-64
2021/01/18 08:25:13;;;;;;;31.80;11.52;;;;;;;-6.64;67.95;100819.06;5016037;28;20041;-65
2021/01/18 08:27:54;;;;;;;24.60;9.63;;;;;;;-6.62;68.12;100827.75;5015633;28;20038;-64
2021/01/18 08:30:34;;;;;;;22.23;9.48;;;;;;;-6.54;68.14;100831.38;5016143;28;20096;-64
2021/01/18 08:33:02;;;;;;;26.50;10.25;;;;;;;-6.44;67.75;100837.59;5016331;28;20042;-65
2021/01/18 08:35:41;;;;;;;26.15;10.20;;;;;;;-6.61;67.82;100806.13;5015859;28;20092;-64
2021/01/18 08:38:09;;;;;;;30.13;11.88;;;;;;;-6.37;67.59;100842.94;5016088;28;20030;-64
2021/01/18 08:40:44;;;;;;;24.85;11.32;;;;;;;-6.28;67.47;100838.72;5015607;28;20040;-65
2021/01/18 08:43:11;;;;;;;27.63;11.23;;;;;;;-6.47;67.78;100814.16;5015843;28;20033;-65
2021/01/18 08:45:40;;;;;;;28.98;11.32;;;;;;;-6.27;67.81;100845.66;5015488;28;20057;-65
2021/01/18 08:48:08;;;;;;;26.33;10.65;;;;;;;-6.25;67.55;100852.66;5015627;28;20033;-65
2021/01/18 08:50:42;;;;;;;22.98;10.05;;;;;;;-6.20;67.30;100848.38;5015096;28;20041;-64
2021/01/18 08:53:32;;;;;;;28.13;11.20;;;;;;;-6.03;67.58;100856.47;5015724;28;20084;-64
2021/01/18 08:56:04;;;;;;;30.58;12.57;;;;;;;-6.04;67.11;100853.84;5015601;28;20030;-64
2021/01/18 08:58:40;;;;;;;26.35;11.02;;;;;;;-5.83;66.53;100857.63;5015499;28;20044;-66
2021/01/18 09:01:15;;;;;;;38.80;11.75;;;;;;;-5.84;67.10;100861.06;4998243;28;20033;-64
2021/01/18 09:03:40;;;;;;;10.82;5.22;;;;;;;-5.92;66.87;100820.28;5015770;28;20044;-64
2021/01/18 09:06:06;;;;;;;28.05;11.88;;;;;;;-5.87;66.76;100816.00;5015382;28;20033;-64
2021/01/18 09:08:32;;;;;;;24.23;10.52;;;;;;;-5.79;66.15;100812.66;4997657;28;20174;-65
2021/01/18 09:10:58;;;;;;;14.75;5.45;;;;;;;-5.62;65.96;100835.41;4997368;28;20463;-64
2021/01/18 09:13:29;;;;;;;15.90;8.13;;;;;;;-5.58;66.20;100866.69;5015164;28;20030;-64
2021/01/18 09:15:57;;;;;;;10.75;5.38;;;;;;;-5.84;66.12;100822.09;5015460;28;20342;-64
2021/01/18 09:18:25;;;;;;;31.70;11.10;;;;;;;-5.44;65.67;100869.47;4998023;28;20061;-64
2021/01/18 09:20:53;;;;;;;26.77;11.00;;;;;;;-5.70;66.34;100808.44;5015162;28;20041;-65
2021/01/18 09:23:19;;;;;;;21.08;7.70;;;;;;;-5.27;65.71;100869.72;5015204;28;20112;-64
2021/01/18 09:25:45;;;;;;;29.40;10.85;;;;;;;-5.52;65.42;100826.88;4997242;28;20041;-64
2021/01/18 09:28:15;;;;;;;29.25;12.02;;;;;;;-5.29;65.63;100861.91;5016398;28;20185;-65
2021/01/18 09:30:43;;;;;;;31.42;10.77;;;;;;;-5.29;65.90;100854.09;5014726;28;20386;-66
2021/01/18 09:33:13;;;;;;;27.27;10.55;;;;;;;-5.30;65.89;100836.75;5014775;28;20033;-65
2021/01/18 09:35:41;;;;;;;35.95;11.73;;;;;;;-5.13;65.54;100851.69;5013679;28;20054;-66
2021/01/18 09:38:08;;;;;;;16.88;7.32;;;;;;;-5.18;65.20;100836.03;4996021;28;20037;-65
2021/01/18 09:40:36;;;;;;;22.13;9.07;;;;;;;-5.09;65.15;100849.16;5013866;28;20442;-65
2021/01/18 09:43:02;;;;;;;19.95;8.57;;;;;;;-5.08;65.02;100831.81;5013595;28;20037;-65
2021/01/18 09:45:28;;;;;;;25.50;10.35;;;;;;;-5.13;64.92;100813.53;4995957;28;20503;-65
2021/01/18 09:47:59;;;;;;;28.13;11.80;;;;;;;-4.86;65.05;100848.56;5013478;28;20041;-65
2021/01/18 09:50:25;;;;;;;20.33;8.07;;;;;;;-5.00;64.23;100793.78;5013645;28;20041;-63
2021/01/18 09:52:53;;;;;;;31.10;10.73;;;;;;;-4.66;64.90;100841.84;5013095;28;20141;-64
2021/01/18 09:55:33;;;;;;;21.83;9.68;;;;;;;-4.94;63.91;100793.81;5013625;28;20042;-64
2021/01/18 09:58:23;;;;;;;9.80;5.50;;;;;;;-4.61;63.89;100841.06;5013434;28;20399;-64
2021/01/18 10:00:49;;;;;;;23.13;9.63;;;;;;;-4.52;63.50;100839.41;5013229;28;20053;-64
2021/01/18 10:03:32;;;;;;;26.88;10.65;;;;;;;-4.50;63.97;100838.56;5012649;28;20071;-64
2021/01/18 10:06:05;;;;;;;23.25;9.57;;;;;;;-4.41;63.76;100838.66;4995710;28;20085;-65
2021/01/18 10:08:32;;;;;;;14.35;7.18;;;;;;;-4.29;63.28;100840.50;5013398;28;20048;-65
2021/01/18 10:10:59;;;;;;;21.63;8.45;;;;;;;-4.19;63.25;100836.25;5013119;28;20041;-64
2021/01/18 10:13:25;;;;;;;22.27;10.38;;;;;;;-4.16;63.33;100829.31;5013074;28;20539;-64
2021/01/18 10:15:52;;;;;;;20.52;10.05;;;;;;;-4.11;62.92;100835.44;5012905;28;20038;-64
2021/01/18 10:18:39;;;;;;;16.23;6.45;;;;;;;-4.08;62.25;100832.00;5013098;28;20536;-65
2021/01/18 10:21:07;;;;;;;19.20;7.13;;;;;;;-4.30;62.89;100788.38;5013047;28;20394;-64
2021/01/18 10:23:39;;;;;;;16.58;7.65;;;;;;;-4.14;62.87;100825.00;5013271;28;20061;-64
2021/01/18 10:26:16;;;;;;;14.75;6.90;;;;;;;-4.06;62.39;100835.47;5013014;28;20375;-64
2021/01/18 10:28:52;;;;;;;11.55;6.47;;;;;;;-4.03;62.04;100849.41;5013030;28;20149;-64
2021/01/18 10:31:19;;;;;;;17.17;5.97;;;;;;;-4.16;62.35;100818.88;5013336;28;20068;-64
2021/01/18 10:33:44;;;;;;;23.83;10.13;;;;;;;-4.01;62.41;100843.34;4995047;28;20049;-64
2021/01/18 10:36:10;;;;;;;20.88;8.18;;;;;;;-4.33;61.78;100787.50;4972376;28;680613;-65
2021/01/18 10:38:38;;;;;;;21.38;8.05;;;;;;;-3.92;61.99;100843.41;4996068;28;20069;-64
2021/01/18 10:41:09;;;;;;;21.75;8.00;;;;;;;-4.01;62.00;100825.97;5013536;28;20074;-64
2021/01/18 10:43:34;;;;;;;12.10;5.53;;;;;;;-3.81;61.27;100845.25;5014089;28;20033;-65
2021/01/18 10:46:01;;;;;;;14.88;5.93;;;;;;;-3.86;60.86;100844.34;5013483;28;20434;-64
2021/01/18 10:48:32;;;;;;;13.15;6.00;;;;;;;-4.02;61.49;100811.22;5013614;28;20121;-63
2021/01/18 10:51:01;;;;;;;14.02;6.25;;;;;;;-4.15;61.32;100799.81;5013345;28;20033;-64
2021/01/18 10:53:29;;;;;;;21.02;8.43;;;;;;;-3.82;61.58;100845.25;5013810;28;20438;-64
2021/01/18 10:56:15;;;;;;;16.77;7.13;;;;;;;-3.75;60.99;100837.47;5013436;28;20076;-63
2021/01/18 10:58:42;;;;;;;11.75;5.35;;;;;;;-3.92;61.28;100791.28;5013657;28;20379;-64
2021/01/18 11:01:13;;;;;;;19.30;7.53;;;;;;;-3.85;60.84;100791.34;5013126;28;20124;-64
2021/01/18 11:03:42;;;;;;;16.48;7.38;;;;;;;-3.76;60.90;100786.22;5013013;28;20033;-64
2021/01/18 11:06:16;;;;;;;18.77;8.27;;;;;;;-3.58;60.77;100821.94;5013088;28;20068;-63
2021/01/18 11:08:42;;;;;;;16.90;8.38;;;;;;;-3.59;60.78;100824.53;4995871;28;20034;-64
2021/01/18 11:11:18;;;;;;;19.65;7.82;;;;;;;-3.47;60.75;100822.03;5013272;28;20433;-64
2021/01/18 11:13:45;;;;;;;12.70;5.63;;;;;;;-3.60;60.63;100810.63;5013078;28;20384;-64
2021/01/18 11:16:12;;;;;;;25.17;8.60;;;;;;;-3.74;60.91;100791.44;5012594;28;20501;-65
2021/01/18 11:18:37;;;;;;;18.45;8.30;;;;;;;-3.77;61.04;100776.59;5013407;28;20034;-64
2021/01/18 11:21:03;;;;;;;18.25;8.68;;;;;;;-3.57;60.86;100795.00;5013151;28;20032;-65
2021/01/18 11:23:28;;;;;;;25.17;9.25;;;;;;;-3.46;61.21;100814.19;4995669;28;20509;-64
2021/01/18 11:25:54;;;;;;;10.30;4.65;;;;;;;-3.59;61.37;100778.47;5012981;28;20034;-65
2021/01/18 11:28:19;;;;;;;20.08;8.02;;;;;;;-3.38;60.13;100808.13;4995648;28;20030;-64